sensor_id;sensor_type;location;lat;lon;timestamp;P1;durP1;ratioP1;P2;durP2;ratioP2
46210;SDS011;52144;48.040;-1.594;2023-07-20T00:02:21;8.05;;;1.83;;
46210;SDS011;52144;48.040;-1.594;2023-07-20T00:04:49;4.75;;;1.15;;
46210;SDS011;52144;48.040;-1.594;2023-07-20T00:07:17;2.50;;;0.90;;
46210;SDS011;52144;48.040;-1.594;2023-07-20T00:09:44;5.93;;;1.55;;
46210;SDS011;52144;48.040;-1.594;2023-07-20T00:12:12;1.92;;;0.90;;
46210;SDS011;52144;48.040;-1.594;2023-07-20T00:14:41;5.22;;;1.35;;
46210;SDS011;52144;48.040;-1.594;2023-07-20T00:17:08;2.13;;;1.48;;
46210;SDS011;52144;48.040;-1.594;2023-07-20T00:19:38;2.28;;;0.98;;
46210;SDS011;52144;48.040;-1.594;2023-07-20T00:22:05;5.65;;;1.30;;
46210;SDS011;52144;48.040;-1.594;2023-07-20T00:24:33;4.00;;;1.70;;
46210;SDS011;52144;48.040;-1.594;2023-07-20T00:27:01;3.42;;;1.23;;
46210;SDS011;52144;48.040;-1.594;2023-07-20T00:29:29;1.73;;;1.00;;
46210;SDS011;52144;48.040;-1.594;2023-07-20T00:31:57;3.65;;;1.48;;
46210;SDS011;52144;48.040;-1.594;2023-07-20T00:34:25;3.88;;;1.60;;
46210;SDS011;52144;48.040;-1.594;2023-07-20T00:36:54;3.95;;;0.90;;
46210;SDS011;52144;48.040;-1.594;2023-07-20T00:39:22;2.90;;;1.42;;
46210;SDS011;52144;48.040;-1.594;2023-07-20T00:41:50;2.92;;;1.35;;
46210;SDS011;52144;48.040;-1.594;2023-07-20T00:44:18;3.00;;;1.15;;
46210;SDS011;52144;48.040;-1.594;2023-07-20T00:46:45;2.25;;;1.67;;
46210;SDS011;52144;48.040;-1.594;2023-07-20T00:49:14;4.30;;;1.38;;
46210;SDS011;52144;48.040;-1.594;2023-07-20T00:51:42;1.38;;;0.98;;
46210;SDS011;52144;48.040;-1.594;2023-07-20T00:54:12;0.82;;;0.80;;
46210;SDS011;52144;48.040;-1.594;2023-07-20T00:56:40;2.40;;;1.70;;
46210;SDS011;52144;48.040;-1.594;2023-07-20T00:59:08;3.67;;;1.17;;
46210;SDS011;52144;48.040;-1.594;2023-07-20T01:01:36;3.63;;;1.10;;
46210;SDS011;52144;48.040;-1.594;2023-07-20T01:04:05;1.20;;;1.00;;
46210;SDS011;52144;48.040;-1.594;2023-07-20T01:06:35;1.80;;;0.90;;
46210;SDS011;52144;48.040;-1.594;2023-07-20T01:09:11;4.18;;;1.08;;
46210;SDS011;52144;48.040;-1.594;2023-07-20T01:11:47;2.25;;;1.20;;
46210;SDS011;52144;48.040;-1.594;2023-07-20T01:14:21;0.95;;;0.82;;
46210;SDS011;52144;48.040;-1.594;2023-07-20T01:16:51;1.73;;;0.82;;
46210;SDS011;52144;48.040;-1.594;2023-07-20T01:19:19;5.68;;;1.77;;
46210;SDS011;52144;48.040;-1.594;2023-07-20T01:21:50;3.65;;;1.55;;
46210;SDS011;52144;48.040;-1.594;2023-07-20T01:33:24;3.60;;;1.45;;
46210;SDS011;52144;48.040;-1.594;2023-07-20T01:35:54;3.50;;;1.48;;
46210;SDS011;52144;48.040;-1.594;2023-07-20T01:38:24;3.30;;;1.75;;
46210;SDS011;52144;48.040;-1.594;2023-07-20T01:40:53;3.47;;;2.13;;
46210;SDS011;52144;48.040;-1.594;2023-07-20T01:43:21;1.40;;;1.30;;
46210;SDS011;52144;48.040;-1.594;2023-07-20T01:45:49;2.15;;;1.27;;
46210;SDS011;52144;48.040;-1.594;2023-07-20T01:48:17;2.72;;;1.20;;
46210;SDS011;52144;48.040;-1.594;2023-07-20T01:50:46;1.90;;;1.50;;
46210;SDS011;52144;48.040;-1.594;2023-07-20T01:53:14;2.10;;;1.35;;
46210;SDS011;52144;48.040;-1.594;2023-07-20T01:55:42;1.65;;;1.15;;
46210;SDS011;52144;48.040;-1.594;2023-07-20T01:58:10;3.80;;;1.27;;
46210;SDS011;52144;48.040;-1.594;2023-07-20T02:00:37;5.53;;;1.40;;
46210;SDS011;52144;48.040;-1.594;2023-07-20T02:03:05;3.30;;;0.88;;
46210;SDS011;52144;48.040;-1.594;2023-07-20T02:05:33;1.50;;;1.40;;
46210;SDS011;52144;48.040;-1.594;2023-07-20T02:08:03;14.68;;;2.30;;
46210;SDS011;52144;48.040;-1.594;2023-07-20T02:10:31;1.45;;;1.23;;
46210;SDS011;52144;48.040;-1.594;2023-07-20T02:12:58;1.90;;;1.45;;
46210;SDS011;52144;48.040;-1.594;2023-07-20T02:15:26;1.58;;;1.20;;
46210;SDS011;52144;48.040;-1.594;2023-07-20T02:17:54;1.83;;;1.40;;
46210;SDS011;52144;48.040;-1.594;2023-07-20T02:20:22;1.63;;;1.50;;
46210;SDS011;52144;48.040;-1.594;2023-07-20T02:22:50;1.85;;;1.20;;
46210;SDS011;52144;48.040;-1.594;2023-07-20T02:25:19;4.47;;;1.27;;
46210;SDS011;52144;48.040;-1.594;2023-07-20T02:27:47;1.27;;;1.00;;
46210;SDS011;52144;48.040;-1.594;2023-07-20T02:30:15;1.95;;;1.02;;
46210;SDS011;52144;48.040;-1.594;2023-07-20T02:32:44;4.00;;;1.70;;
46210;SDS011;52144;48.040;-1.594;2023-07-20T02:35:15;4.32;;;2.30;;
46210;SDS011;52144;48.040;-1.594;2023-07-20T02:37:43;4.22;;;1.63;;
46210;SDS011;52144;48.040;-1.594;2023-07-20T02:40:11;4.32;;;1.40;;
46210;SDS011;52144;48.040;-1.594;2023-07-20T02:42:40;4.95;;;1.50;;
46210;SDS011;52144;48.040;-1.594;2023-07-20T02:45:08;2.67;;;1.35;;
46210;SDS011;52144;48.040;-1.594;2023-07-20T02:47:36;3.15;;;1.70;;
46210;SDS011;52144;48.040;-1.594;2023-07-20T02:50:05;7.00;;;1.20;;
46210;SDS011;52144;48.040;-1.594;2023-07-20T02:52:35;7.20;;;1.90;;
46210;SDS011;52144;48.040;-1.594;2023-07-20T02:55:03;1.52;;;1.00;;
46210;SDS011;52144;48.040;-1.594;2023-07-20T02:57:31;4.55;;;1.20;;
46210;SDS011;52144;48.040;-1.594;2023-07-20T03:00:00;2.90;;;1.15;;
46210;SDS011;52144;48.040;-1.594;2023-07-20T03:02:30;2.05;;;1.48;;
46210;SDS011;52144;48.040;-1.594;2023-07-20T03:04:58;2.35;;;1.52;;
46210;SDS011;52144;48.040;-1.594;2023-07-20T03:07:27;2.47;;;1.15;;
46210;SDS011;52144;48.040;-1.594;2023-07-20T03:09:55;6.43;;;1.42;;
46210;SDS011;52144;48.040;-1.594;2023-07-20T03:12:23;1.30;;;1.00;;
46210;SDS011;52144;48.040;-1.594;2023-07-20T03:14:51;1.70;;;1.52;;
46210;SDS011;52144;48.040;-1.594;2023-07-20T03:17:21;3.75;;;1.35;;
46210;SDS011;52144;48.040;-1.594;2023-07-20T03:19:49;3.00;;;1.27;;
46210;SDS011;52144;48.040;-1.594;2023-07-20T03:22:17;3.70;;;1.38;;
46210;SDS011;52144;48.040;-1.594;2023-07-20T03:24:45;2.33;;;1.50;;
46210;SDS011;52144;48.040;-1.594;2023-07-20T03:27:13;1.20;;;1.00;;
46210;SDS011;52144;48.040;-1.594;2023-07-20T03:29:41;3.50;;;1.33;;
46210;SDS011;52144;48.040;-1.594;2023-07-20T03:32:08;5.20;;;1.40;;
46210;SDS011;52144;48.040;-1.594;2023-07-20T03:34:38;5.40;;;1.65;;
46210;SDS011;52144;48.040;-1.594;2023-07-20T03:37:06;2.58;;;1.33;;
46210;SDS011;52144;48.040;-1.594;2023-07-20T03:39:34;3.45;;;1.60;;
46210;SDS011;52144;48.040;-1.594;2023-07-20T03:42:01;2.05;;;1.33;;
46210;SDS011;52144;48.040;-1.594;2023-07-20T03:44:30;1.90;;;1.40;;
46210;SDS011;52144;48.040;-1.594;2023-07-20T03:46:58;1.83;;;1.55;;
46210;SDS011;52144;48.040;-1.594;2023-07-20T03:49:26;3.45;;;1.50;;
46210;SDS011;52144;48.040;-1.594;2023-07-20T03:51:55;1.55;;;1.27;;
46210;SDS011;52144;48.040;-1.594;2023-07-20T03:54:22;1.95;;;1.73;;
46210;SDS011;52144;48.040;-1.594;2023-07-20T03:56:50;2.72;;;1.70;;
46210;SDS011;52144;48.040;-1.594;2023-07-20T03:59:18;6.65;;;1.75;;
46210;SDS011;52144;48.040;-1.594;2023-07-20T04:01:46;6.03;;;1.67;;
46210;SDS011;52144;48.040;-1.594;2023-07-20T04:04:15;4.07;;;2.50;;
46210;SDS011;52144;48.040;-1.594;2023-07-20T04:06:43;8.77;;;2.03;;
46210;SDS011;52144;48.040;-1.594;2023-07-20T04:09:12;3.78;;;2.22;;
46210;SDS011;52144;48.040;-1.594;2023-07-20T04:11:40;6.97;;;1.85;;
46210;SDS011;52144;48.040;-1.594;2023-07-20T04:14:08;5.50;;;1.80;;
46210;SDS011;52144;48.040;-1.594;2023-07-20T04:16:36;2.10;;;1.42;;
46210;SDS011;52144;48.040;-1.594;2023-07-20T04:19:04;2.60;;;2.10;;
46210;SDS011;52144;48.040;-1.594;2023-07-20T04:21:32;2.17;;;1.83;;
46210;SDS011;52144;48.040;-1.594;2023-07-20T04:23:59;1.77;;;1.50;;
46210;SDS011;52144;48.040;-1.594;2023-07-20T04:26:28;2.88;;;1.92;;
46210;SDS011;52144;48.040;-1.594;2023-07-20T04:28:56;2.65;;;2.05;;
46210;SDS011;52144;48.040;-1.594;2023-07-20T04:31:25;9.05;;;2.30;;
46210;SDS011;52144;48.040;-1.594;2023-07-20T04:33:53;3.35;;;1.85;;
46210;SDS011;52144;48.040;-1.594;2023-07-20T04:36:21;4.90;;;1.80;;
46210;SDS011;52144;48.040;-1.594;2023-07-20T04:38:49;2.35;;;1.95;;
46210;SDS011;52144;48.040;-1.594;2023-07-20T04:41:17;3.75;;;1.92;;
46210;SDS011;52144;48.040;-1.594;2023-07-20T04:43:46;3.75;;;2.08;;
46210;SDS011;52144;48.040;-1.594;2023-07-20T04:46:14;2.95;;;2.10;;
46210;SDS011;52144;48.040;-1.594;2023-07-20T04:48:44;2.72;;;1.90;;
46210;SDS011;52144;48.040;-1.594;2023-07-20T04:51:11;2.33;;;1.83;;
46210;SDS011;52144;48.040;-1.594;2023-07-20T04:53:39;2.53;;;1.75;;
46210;SDS011;52144;48.040;-1.594;2023-07-20T04:56:07;2.55;;;1.80;;
46210;SDS011;52144;48.040;-1.594;2023-07-20T04:58:36;7.45;;;2.20;;
46210;SDS011;52144;48.040;-1.594;2023-07-20T05:01:06;2.60;;;1.83;;
46210;SDS011;52144;48.040;-1.594;2023-07-20T05:03:33;6.03;;;2.25;;
46210;SDS011;52144;48.040;-1.594;2023-07-20T05:06:01;6.43;;;2.05;;
46210;SDS011;52144;48.040;-1.594;2023-07-20T05:08:29;5.63;;;2.13;;
46210;SDS011;52144;48.040;-1.594;2023-07-20T05:10:57;2.80;;;2.15;;
46210;SDS011;52144;48.040;-1.594;2023-07-20T05:13:26;4.25;;;2.00;;
46210;SDS011;52144;48.040;-1.594;2023-07-20T05:15:54;3.25;;;2.00;;
46210;SDS011;52144;48.040;-1.594;2023-07-20T05:18:23;2.45;;;2.22;;
46210;SDS011;52144;48.040;-1.594;2023-07-20T05:20:51;2.53;;;2.03;;
46210;SDS011;52144;48.040;-1.594;2023-07-20T05:23:21;6.72;;;2.40;;
46210;SDS011;52144;48.040;-1.594;2023-07-20T05:25:53;2.72;;;2.50;;
46210;SDS011;52144;48.040;-1.594;2023-07-20T05:28:21;4.85;;;2.17;;
46210;SDS011;52144;48.040;-1.594;2023-07-20T05:30:49;5.65;;;2.13;;
46210;SDS011;52144;48.040;-1.594;2023-07-20T05:33:18;2.42;;;1.70;;
46210;SDS011;52144;48.040;-1.594;2023-07-20T05:35:48;4.53;;;2.25;;
46210;SDS011;52144;48.040;-1.594;2023-07-20T05:38:16;4.68;;;2.83;;
46210;SDS011;52144;48.040;-1.594;2023-07-20T05:40:44;6.28;;;3.00;;
46210;SDS011;52144;48.040;-1.594;2023-07-20T05:43:13;4.07;;;2.55;;
46210;SDS011;52144;48.040;-1.594;2023-07-20T05:45:41;4.45;;;2.25;;
46210;SDS011;52144;48.040;-1.594;2023-07-20T05:48:09;3.13;;;2.35;;
46210;SDS011;52144;48.040;-1.594;2023-07-20T05:50:41;4.32;;;2.38;;
46210;SDS011;52144;48.040;-1.594;2023-07-20T05:53:11;6.80;;;2.20;;
46210;SDS011;52144;48.040;-1.594;2023-07-20T05:55:39;6.78;;;2.70;;
46210;SDS011;52144;48.040;-1.594;2023-07-20T05:58:07;3.28;;;2.45;;
46210;SDS011;52144;48.040;-1.594;2023-07-20T06:00:35;6.65;;;3.15;;
46210;SDS011;52144;48.040;-1.594;2023-07-20T06:03:02;5.68;;;2.42;;
46210;SDS011;52144;48.040;-1.594;2023-07-20T06:05:30;4.22;;;2.35;;
46210;SDS011;52144;48.040;-1.594;2023-07-20T06:07:58;3.55;;;2.20;;
46210;SDS011;52144;48.040;-1.594;2023-07-20T06:10:28;3.40;;;2.47;;
46210;SDS011;52144;48.040;-1.594;2023-07-20T06:12:56;6.25;;;2.05;;
46210;SDS011;52144;48.040;-1.594;2023-07-20T06:15:24;4.00;;;2.33;;
46210;SDS011;52144;48.040;-1.594;2023-07-20T06:17:53;2.65;;;1.92;;
46210;SDS011;52144;48.040;-1.594;2023-07-20T06:20:22;5.38;;;2.00;;
46210;SDS011;52144;48.040;-1.594;2023-07-20T06:22:50;4.45;;;2.08;;
46210;SDS011;52144;48.040;-1.594;2023-07-20T06:25:18;9.65;;;2.58;;
46210;SDS011;52144;48.040;-1.594;2023-07-20T06:27:48;2.33;;;1.85;;
46210;SDS011;52144;48.040;-1.594;2023-07-20T06:30:17;4.75;;;2.90;;
46210;SDS011;52144;48.040;-1.594;2023-07-20T06:32:44;2.80;;;1.88;;
46210;SDS011;52144;48.040;-1.594;2023-07-20T06:35:13;5.55;;;1.95;;
46210;SDS011;52144;48.040;-1.594;2023-07-20T06:37:41;2.33;;;1.73;;
46210;SDS011;52144;48.040;-1.594;2023-07-20T06:40:09;3.60;;;2.22;;
46210;SDS011;52144;48.040;-1.594;2023-07-20T06:42:41;4.72;;;2.53;;
46210;SDS011;52144;48.040;-1.594;2023-07-20T06:45:13;4.38;;;2.45;;
46210;SDS011;52144;48.040;-1.594;2023-07-20T06:47:41;3.90;;;1.90;;
46210;SDS011;52144;48.040;-1.594;2023-07-20T06:50:09;3.45;;;2.20;;
46210;SDS011;52144;48.040;-1.594;2023-07-20T06:52:43;7.25;;;2.58;;
46210;SDS011;52144;48.040;-1.594;2023-07-20T06:55:12;2.40;;;1.83;;
46210;SDS011;52144;48.040;-1.594;2023-07-20T06:57:41;3.92;;;2.03;;
46210;SDS011;52144;48.040;-1.594;2023-07-20T07:00:15;5.90;;;2.13;;
46210;SDS011;52144;48.040;-1.594;2023-07-20T07:02:43;8.23;;;2.05;;
46210;SDS011;52144;48.040;-1.594;2023-07-20T07:05:15;3.63;;;1.80;;
46210;SDS011;52144;48.040;-1.594;2023-07-20T07:07:46;3.83;;;1.60;;
46210;SDS011;52144;48.040;-1.594;2023-07-20T07:10:15;2.60;;;2.40;;
46210;SDS011;52144;48.040;-1.594;2023-07-20T07:12:43;2.70;;;1.63;;
46210;SDS011;52144;48.040;-1.594;2023-07-20T07:15:11;5.00;;;1.63;;
46210;SDS011;52144;48.040;-1.594;2023-07-20T07:17:40;3.35;;;1.48;;
46210;SDS011;52144;48.040;-1.594;2023-07-20T07:20:10;8.57;;;1.90;;
46210;SDS011;52144;48.040;-1.594;2023-07-20T07:22:46;4.13;;;1.45;;
46210;SDS011;52144;48.040;-1.594;2023-07-20T07:25:19;1.98;;;1.77;;
46210;SDS011;52144;48.040;-1.594;2023-07-20T07:27:49;2.25;;;1.58;;
46210;SDS011;52144;48.040;-1.594;2023-07-20T07:30:18;6.25;;;2.08;;
46210;SDS011;52144;48.040;-1.594;2023-07-20T07:32:47;2.28;;;1.95;;
46210;SDS011;52144;48.040;-1.594;2023-07-20T07:35:15;2.47;;;1.98;;
46210;SDS011;52144;48.040;-1.594;2023-07-20T07:37:43;6.70;;;2.08;;
46210;SDS011;52144;48.040;-1.594;2023-07-20T07:40:31;4.03;;;2.17;;
46210;SDS011;52144;48.040;-1.594;2023-07-20T07:43:00;5.22;;;1.88;;
46210;SDS011;52144;48.040;-1.594;2023-07-20T07:45:28;2.90;;;1.73;;
46210;SDS011;52144;48.040;-1.594;2023-07-20T07:47:57;5.70;;;1.88;;
46210;SDS011;52144;48.040;-1.594;2023-07-20T07:50:25;3.65;;;1.77;;
46210;SDS011;52144;48.040;-1.594;2023-07-20T07:52:53;6.47;;;1.92;;
46210;SDS011;52144;48.040;-1.594;2023-07-20T07:55:21;3.40;;;2.00;;
46210;SDS011;52144;48.040;-1.594;2023-07-20T07:57:49;3.30;;;1.35;;
46210;SDS011;52144;48.040;-1.594;2023-07-20T08:00:17;11.35;;;2.03;;
46210;SDS011;52144;48.040;-1.594;2023-07-20T08:02:46;3.42;;;1.73;;
46210;SDS011;52144;48.040;-1.594;2023-07-20T08:05:16;2.50;;;1.38;;
46210;SDS011;52144;48.040;-1.594;2023-07-20T08:07:44;2.22;;;1.33;;
46210;SDS011;52144;48.040;-1.594;2023-07-20T08:10:12;7.90;;;1.67;;
46210;SDS011;52144;48.040;-1.594;2023-07-20T08:12:40;3.00;;;1.70;;
46210;SDS011;52144;48.040;-1.594;2023-07-20T08:15:10;2.13;;;1.27;;
46210;SDS011;52144;48.040;-1.594;2023-07-20T08:17:38;2.67;;;1.63;;
46210;SDS011;52144;48.040;-1.594;2023-07-20T08:20:07;4.00;;;1.60;;
46210;SDS011;52144;48.040;-1.594;2023-07-20T08:22:39;3.80;;;1.85;;
46210;SDS011;52144;48.040;-1.594;2023-07-20T08:25:08;3.97;;;1.33;;
46210;SDS011;52144;48.040;-1.594;2023-07-20T08:27:36;2.72;;;1.67;;
46210;SDS011;52144;48.040;-1.594;2023-07-20T08:30:04;3.40;;;1.60;;
46210;SDS011;52144;48.040;-1.594;2023-07-20T08:32:34;2.92;;;1.42;;
46210;SDS011;52144;48.040;-1.594;2023-07-20T08:35:02;5.50;;;2.15;;
46210;SDS011;52144;48.040;-1.594;2023-07-20T08:37:30;3.42;;;1.42;;
46210;SDS011;52144;48.040;-1.594;2023-07-20T08:39:59;1.40;;;1.30;;
46210;SDS011;52144;48.040;-1.594;2023-07-20T08:42:27;3.78;;;1.30;;
46210;SDS011;52144;48.040;-1.594;2023-07-20T08:44:55;4.18;;;1.50;;
46210;SDS011;52144;48.040;-1.594;2023-07-20T08:47:24;2.25;;;1.20;;
46210;SDS011;52144;48.040;-1.594;2023-07-20T08:49:53;1.58;;;1.17;;
46210;SDS011;52144;48.040;-1.594;2023-07-20T08:52:23;3.85;;;2.58;;
46210;SDS011;52144;48.040;-1.594;2023-07-20T08:54:50;2.08;;;1.40;;
46210;SDS011;52144;48.040;-1.594;2023-07-20T08:57:21;2.70;;;1.88;;
46210;SDS011;52144;48.040;-1.594;2023-07-20T08:59:50;2.17;;;1.73;;
46210;SDS011;52144;48.040;-1.594;2023-07-20T09:02:19;4.13;;;1.90;;
46210;SDS011;52144;48.040;-1.594;2023-07-20T09:04:53;5.70;;;1.45;;
46210;SDS011;52144;48.040;-1.594;2023-07-20T09:07:21;3.38;;;1.70;;
46210;SDS011;52144;48.040;-1.594;2023-07-20T09:09:50;6.28;;;1.42;;
46210;SDS011;52144;48.040;-1.594;2023-07-20T09:12:18;3.47;;;1.55;;
46210;SDS011;52144;48.040;-1.594;2023-07-20T09:14:49;1.90;;;1.20;;
46210;SDS011;52144;48.040;-1.594;2023-07-20T09:17:16;2.08;;;1.48;;
46210;SDS011;52144;48.040;-1.594;2023-07-20T09:19:46;3.17;;;2.17;;
46210;SDS011;52144;48.040;-1.594;2023-07-20T09:22:14;5.32;;;1.58;;
46210;SDS011;52144;48.040;-1.594;2023-07-20T09:24:43;4.50;;;1.40;;
46210;SDS011;52144;48.040;-1.594;2023-07-20T09:27:12;2.45;;;1.52;;
46210;SDS011;52144;48.040;-1.594;2023-07-20T09:29:47;1.42;;;1.27;;
46210;SDS011;52144;48.040;-1.594;2023-07-20T09:32:17;1.98;;;1.33;;
46210;SDS011;52144;48.040;-1.594;2023-07-20T09:34:50;2.45;;;1.15;;
46210;SDS011;52144;48.040;-1.594;2023-07-20T09:37:22;6.13;;;1.50;;
46210;SDS011;52144;48.040;-1.594;2023-07-20T09:39:51;3.55;;;1.50;;
46210;SDS011;52144;48.040;-1.594;2023-07-20T09:42:22;3.92;;;1.50;;
46210;SDS011;52144;48.040;-1.594;2023-07-20T09:44:55;2.90;;;1.63;;
46210;SDS011;52144;48.040;-1.594;2023-07-20T09:47:24;5.65;;;1.60;;
46210;SDS011;52144;48.040;-1.594;2023-07-20T09:49:57;4.28;;;1.40;;
46210;SDS011;52144;48.040;-1.594;2023-07-20T09:52:29;4.63;;;1.17;;
46210;SDS011;52144;48.040;-1.594;2023-07-20T09:55:00;2.83;;;1.33;;
46210;SDS011;52144;48.040;-1.594;2023-07-20T09:57:30;1.58;;;1.20;;
46210;SDS011;52144;48.040;-1.594;2023-07-20T10:00:01;1.42;;;0.95;;
46210;SDS011;52144;48.040;-1.594;2023-07-20T10:02:36;3.50;;;1.98;;
46210;SDS011;52144;48.040;-1.594;2023-07-20T10:05:10;6.72;;;0.82;;
46210;SDS011;52144;48.040;-1.594;2023-07-20T10:07:40;4.22;;;0.85;;
46210;SDS011;52144;48.040;-1.594;2023-07-20T10:10:11;1.02;;;0.60;;
46210;SDS011;52144;48.040;-1.594;2023-07-20T10:12:41;5.78;;;2.08;;
46210;SDS011;52144;48.040;-1.594;2023-07-20T10:15:13;1.67;;;1.13;;
46210;SDS011;52144;48.040;-1.594;2023-07-20T10:17:49;0.63;;;0.60;;
46210;SDS011;52144;48.040;-1.594;2023-07-20T10:20:24;2.00;;;0.93;;
46210;SDS011;52144;48.040;-1.594;2023-07-20T10:22:56;0.77;;;0.63;;
46210;SDS011;52144;48.040;-1.594;2023-07-20T10:25:24;3.08;;;0.90;;
46210;SDS011;52144;48.040;-1.594;2023-07-20T10:27:52;1.95;;;1.00;;
46210;SDS011;52144;48.040;-1.594;2023-07-20T10:30:22;2.80;;;1.25;;
46210;SDS011;52144;48.040;-1.594;2023-07-20T10:32:50;2.40;;;1.00;;
46210;SDS011;52144;48.040;-1.594;2023-07-20T10:35:19;1.27;;;1.00;;
46210;SDS011;52144;48.040;-1.594;2023-07-20T10:37:59;1.10;;;1.00;;
46210;SDS011;52144;48.040;-1.594;2023-07-20T10:40:31;1.45;;;0.90;;
46210;SDS011;52144;48.040;-1.594;2023-07-20T10:43:01;1.63;;;0.70;;
46210;SDS011;52144;48.040;-1.594;2023-07-20T10:45:35;1.48;;;1.08;;
46210;SDS011;52144;48.040;-1.594;2023-07-20T10:48:13;2.40;;;1.10;;
46210;SDS011;52144;48.040;-1.594;2023-07-20T10:50:42;2.65;;;1.38;;
46210;SDS011;52144;48.040;-1.594;2023-07-20T10:53:11;2.05;;;1.00;;
46210;SDS011;52144;48.040;-1.594;2023-07-20T10:55:40;3.83;;;1.02;;
46210;SDS011;52144;48.040;-1.594;2023-07-20T10:58:10;2.28;;;0.90;;
46210;SDS011;52144;48.040;-1.594;2023-07-20T11:00:45;2.20;;;1.00;;
46210;SDS011;52144;48.040;-1.594;2023-07-20T11:03:29;4.13;;;1.05;;
46210;SDS011;52144;48.040;-1.594;2023-07-20T11:09:08;3.80;;;1.25;;
46210;SDS011;52144;48.040;-1.594;2023-07-20T11:11:38;0.90;;;0.90;;
46210;SDS011;52144;48.040;-1.594;2023-07-20T11:14:07;0.85;;;0.85;;
46210;SDS011;52144;48.040;-1.594;2023-07-20T11:16:41;4.75;;;1.00;;
46210;SDS011;52144;48.040;-1.594;2023-07-20T11:19:14;1.75;;;0.80;;
46210;SDS011;52144;48.040;-1.594;2023-07-20T11:22:03;1.50;;;1.00;;
46210;SDS011;52144;48.040;-1.594;2023-07-20T11:24:34;1.92;;;1.15;;
46210;SDS011;52144;48.040;-1.594;2023-07-20T11:27:02;3.70;;;0.80;;
46210;SDS011;52144;48.040;-1.594;2023-07-20T11:29:30;0.68;;;0.65;;
46210;SDS011;52144;48.040;-1.594;2023-07-20T11:32:01;2.88;;;0.85;;
46210;SDS011;52144;48.040;-1.594;2023-07-20T11:34:32;1.15;;;0.63;;
46210;SDS011;52144;48.040;-1.594;2023-07-20T11:37:01;3.05;;;1.27;;
46210;SDS011;52144;48.040;-1.594;2023-07-20T11:39:32;1.73;;;0.88;;
46210;SDS011;52144;48.040;-1.594;2023-07-20T11:41:59;3.20;;;1.20;;
46210;SDS011;52144;48.040;-1.594;2023-07-20T11:44:28;1.70;;;0.85;;
46210;SDS011;52144;48.040;-1.594;2023-07-20T11:47:02;1.98;;;0.73;;
46210;SDS011;52144;48.040;-1.594;2023-07-20T11:49:34;1.25;;;0.70;;
46210;SDS011;52144;48.040;-1.594;2023-07-20T11:52:03;1.73;;;0.85;;
46210;SDS011;52144;48.040;-1.594;2023-07-20T11:54:32;1.95;;;1.25;;
46210;SDS011;52144;48.040;-1.594;2023-07-20T11:57:01;1.92;;;0.75;;
46210;SDS011;52144;48.040;-1.594;2023-07-20T11:59:29;2.85;;;1.02;;
46210;SDS011;52144;48.040;-1.594;2023-07-20T12:01:58;2.25;;;1.00;;
46210;SDS011;52144;48.040;-1.594;2023-07-20T12:04:30;1.70;;;0.63;;
46210;SDS011;52144;48.040;-1.594;2023-07-20T12:06:58;2.33;;;1.00;;
46210;SDS011;52144;48.040;-1.594;2023-07-20T12:09:26;2.35;;;0.85;;
46210;SDS011;52144;48.040;-1.594;2023-07-20T12:12:11;0.70;;;0.60;;
46210;SDS011;52144;48.040;-1.594;2023-07-20T12:14:39;0.73;;;0.70;;
46210;SDS011;52144;48.040;-1.594;2023-07-20T12:17:07;0.73;;;0.70;;
46210;SDS011;52144;48.040;-1.594;2023-07-20T12:19:39;1.23;;;1.00;;
46210;SDS011;52144;48.040;-1.594;2023-07-20T12:22:06;1.02;;;0.75;;
46210;SDS011;52144;48.040;-1.594;2023-07-20T12:24:35;4.18;;;0.82;;
46210;SDS011;52144;48.040;-1.594;2023-07-20T12:27:03;5.82;;;1.00;;
46210;SDS011;52144;48.040;-1.594;2023-07-20T12:29:31;1.08;;;0.88;;
46210;SDS011;52144;48.040;-1.594;2023-07-20T12:32:03;1.05;;;0.73;;
46210;SDS011;52144;48.040;-1.594;2023-07-20T12:34:32;1.20;;;1.10;;
46210;SDS011;52144;48.040;-1.594;2023-07-20T12:37:03;3.75;;;1.55;;
46210;SDS011;52144;48.040;-1.594;2023-07-20T12:39:32;1.43;;;0.97;;
46210;SDS011;52144;48.040;-1.594;2023-07-20T12:42:00;1.55;;;1.45;;
46210;SDS011;52144;48.040;-1.594;2023-07-20T12:44:28;0.90;;;0.73;;
46210;SDS011;52144;48.040;-1.594;2023-07-20T12:46:55;3.50;;;1.20;;
46210;SDS011;52144;48.040;-1.594;2023-07-20T12:49:23;3.05;;;1.00;;
46210;SDS011;52144;48.040;-1.594;2023-07-20T12:51:51;5.53;;;1.33;;
46210;SDS011;52144;48.040;-1.594;2023-07-20T12:54:20;1.98;;;0.90;;
46210;SDS011;52144;48.040;-1.594;2023-07-20T12:56:48;2.25;;;1.25;;
46210;SDS011;52144;48.040;-1.594;2023-07-20T12:59:19;5.03;;;1.20;;
46210;SDS011;52144;48.040;-1.594;2023-07-20T13:01:47;2.33;;;1.27;;
46210;SDS011;52144;48.040;-1.594;2023-07-20T13:04:15;1.63;;;1.00;;
46210;SDS011;52144;48.040;-1.594;2023-07-20T13:06:44;1.10;;;0.77;;
46210;SDS011;52144;48.040;-1.594;2023-07-20T13:09:12;4.53;;;1.33;;
46210;SDS011;52144;48.040;-1.594;2023-07-20T13:11:41;1.13;;;1.02;;
46210;SDS011;52144;48.040;-1.594;2023-07-20T13:14:09;1.20;;;1.10;;
46210;SDS011;52144;48.040;-1.594;2023-07-20T13:16:38;4.95;;;0.90;;
46210;SDS011;52144;48.040;-1.594;2023-07-20T13:19:06;1.08;;;0.98;;
46210;SDS011;52144;48.040;-1.594;2023-07-20T13:21:33;1.67;;;1.13;;
46210;SDS011;52144;48.040;-1.594;2023-07-20T13:24:03;0.95;;;0.95;;
46210;SDS011;52144;48.040;-1.594;2023-07-20T13:26:32;1.17;;;1.05;;
46210;SDS011;52144;48.040;-1.594;2023-07-20T13:29:03;3.15;;;0.88;;
46210;SDS011;52144;48.040;-1.594;2023-07-20T13:31:31;1.70;;;0.80;;
46210;SDS011;52144;48.040;-1.594;2023-07-20T13:34:01;1.05;;;0.95;;
46210;SDS011;52144;48.040;-1.594;2023-07-20T13:36:29;1.20;;;0.93;;
46210;SDS011;52144;48.040;-1.594;2023-07-20T13:38:57;1.63;;;1.10;;
46210;SDS011;52144;48.040;-1.594;2023-07-20T13:41:26;1.83;;;1.10;;
46210;SDS011;52144;48.040;-1.594;2023-07-20T13:43:55;1.48;;;0.75;;
46210;SDS011;52144;48.040;-1.594;2023-07-20T13:46:25;0.77;;;0.77;;
46210;SDS011;52144;48.040;-1.594;2023-07-20T13:48:56;2.22;;;1.13;;
46210;SDS011;52144;48.040;-1.594;2023-07-20T13:51:24;1.55;;;0.85;;
46210;SDS011;52144;48.040;-1.594;2023-07-20T13:53:53;5.57;;;1.23;;
46210;SDS011;52144;48.040;-1.594;2023-07-20T13:56:21;2.10;;;0.80;;
46210;SDS011;52144;48.040;-1.594;2023-07-20T13:58:49;0.70;;;0.70;;
46210;SDS011;52144;48.040;-1.594;2023-07-20T14:01:17;1.20;;;0.90;;
46210;SDS011;52144;48.040;-1.594;2023-07-20T14:03:49;0.80;;;0.80;;
46210;SDS011;52144;48.040;-1.594;2023-07-20T14:06:19;2.72;;;0.80;;
46210;SDS011;52144;48.040;-1.594;2023-07-20T14:08:51;1.08;;;0.60;;
46210;SDS011;52144;48.040;-1.594;2023-07-20T14:11:19;0.93;;;0.80;;
46210;SDS011;52144;48.040;-1.594;2023-07-20T14:13:50;2.45;;;1.00;;
46210;SDS011;52144;48.040;-1.594;2023-07-20T14:16:19;1.40;;;0.80;;
46210;SDS011;52144;48.040;-1.594;2023-07-20T14:18:47;1.00;;;0.70;;
46210;SDS011;52144;48.040;-1.594;2023-07-20T14:21:17;1.65;;;0.70;;
46210;SDS011;52144;48.040;-1.594;2023-07-20T14:23:47;2.63;;;0.60;;
46210;SDS011;52144;48.040;-1.594;2023-07-20T14:26:19;1.02;;;0.88;;
46210;SDS011;52144;48.040;-1.594;2023-07-20T14:28:48;7.43;;;1.50;;
46210;SDS011;52144;48.040;-1.594;2023-07-20T14:31:16;2.00;;;0.73;;
46210;SDS011;52144;48.040;-1.594;2023-07-20T14:33:45;0.70;;;0.70;;
46210;SDS011;52144;48.040;-1.594;2023-07-20T14:36:13;1.02;;;0.93;;
46210;SDS011;52144;48.040;-1.594;2023-07-20T14:38:42;0.90;;;0.77;;
46210;SDS011;52144;48.040;-1.594;2023-07-20T14:41:10;2.38;;;0.57;;
46210;SDS011;52144;48.040;-1.594;2023-07-20T14:43:38;3.30;;;1.33;;
46210;SDS011;52144;48.040;-1.594;2023-07-20T14:46:06;1.65;;;0.98;;
46210;SDS011;52144;48.040;-1.594;2023-07-20T14:48:34;1.33;;;1.00;;
46210;SDS011;52144;48.040;-1.594;2023-07-20T14:51:02;1.00;;;0.93;;
46210;SDS011;52144;48.040;-1.594;2023-07-20T14:53:31;0.95;;;0.77;;
46210;SDS011;52144;48.040;-1.594;2023-07-20T14:56:04;0.98;;;0.80;;
46210;SDS011;52144;48.040;-1.594;2023-07-20T14:58:31;2.95;;;0.90;;